sensor_id;sensor_type;location;lat;lon;timestamp;pressure;altitude;pressure_sealevel;temperature;humidity
60089;BME280;45961;53.574;55.878;2023-04-25T00:00:28;100847.91;;;5.77;62.68
60089;BME280;45961;53.574;55.878;2023-04-25T00:01:29;100848.16;;;5.83;62.46
60089;BME280;45961;53.574;55.878;2023-04-25T00:02:30;100858.47;;;5.85;62.12
60089;BME280;45961;53.574;55.878;2023-04-25T00:03:32;100860.16;;;5.84;62.19
60089;BME280;45961;53.574;55.878;2023-04-25T00:04:33;100855.84;;;5.83;62.34
60089;BME280;45961;53.574;55.878;2023-04-25T00:05:34;100858.13;;;5.76;62.74
60089;BME280;45961;53.574;55.878;2023-04-25T00:06:37;100862.19;;;5.70;63.22
60089;BME280;45961;53.574;55.878;2023-04-25T00:07:38;100863.19;;;5.74;62.83
60089;BME280;45961;53.574;55.878;2023-04-25T00:08:39;100857.03;;;5.70;63.01
60089;BME280;45961;53.574;55.878;2023-04-25T00:09:41;100856.78;;;5.63;63.54
60089;BME280;45961;53.574;55.878;2023-04-25T00:10:42;100855.69;;;5.58;63.68
60089;BME280;45961;53.574;55.878;2023-04-25T00:11:43;100853.94;;;5.57;63.75
60089;BME280;45961;53.574;55.878;2023-04-25T00:12:44;100851.34;;;5.55;63.74
60089;BME280;45961;53.574;55.878;2023-04-25T00:13:45;100854.69;;;5.54;63.53
60089;BME280;45961;53.574;55.878;2023-04-25T00:14:47;100852.03;;;5.51;63.53
60089;BME280;45961;53.574;55.878;2023-04-25T00:15:50;100861.34;;;5.49;63.56
60089;BME280;45961;53.574;55.878;2023-04-25T00:16:50;100865.34;;;5.42;63.72
60089;BME280;45961;53.574;55.878;2023-04-25T00:17:52;100863.59;;;5.41;63.78
60089;BME280;45961;53.574;55.878;2023-04-25T00:18:53;100863.59;;;5.41;63.58
60089;BME280;45961;53.574;55.878;2023-04-25T00:19:54;100864.25;;;5.36;63.63
60089;BME280;45961;53.574;55.878;2023-04-25T00:20:55;100858.25;;;5.35;63.62
60089;BME280;45961;53.574;55.878;2023-04-25T00:21:56;100861.69;;;5.36;63.79
60089;BME280;45961;53.574;55.878;2023-04-25T00:22:57;100866.72;;;5.34;63.97
60089;BME280;45961;53.574;55.878;2023-04-25T00:23:58;100858.94;;;5.31;64.27
60089;BME280;45961;53.574;55.878;2023-04-25T00:24:59;100855.59;;;5.34;64.23
60089;BME280;45961;53.574;55.878;2023-04-25T00:26:00;100864.94;;;5.32;64.63
60089;BME280;45961;53.574;55.878;2023-04-25T00:27:01;100855.22;;;5.25;64.42
60089;BME280;45961;53.574;55.878;2023-04-25T00:28:02;100854.50;;;5.27;64.25
60089;BME280;45961;53.574;55.878;2023-04-25T00:29:03;100856.78;;;5.21;64.85
60089;BME280;45961;53.574;55.878;2023-04-25T00:30:04;100856.88;;;5.23;64.72
60089;BME280;45961;53.574;55.878;2023-04-25T00:31:05;100860.38;;;5.25;64.77
60089;BME280;45961;53.574;55.878;2023-04-25T00:32:06;100852.34;;;5.17;65.38
60089;BME280;45961;53.574;55.878;2023-04-25T00:33:07;100849.78;;;5.17;65.20
60089;BME280;45961;53.574;55.878;2023-04-25T00:34:08;100857.47;;;5.17;65.18
60089;BME280;45961;53.574;55.878;2023-04-25T00:35:09;100854.00;;;5.15;65.34
60089;BME280;45961;53.574;55.878;2023-04-25T00:36:10;100848.59;;;5.09;65.71
60089;BME280;45961;53.574;55.878;2023-04-25T00:37:11;100850.09;;;5.04;65.56
60089;BME280;45961;53.574;55.878;2023-04-25T00:38:13;100850.09;;;5.04;65.51
60089;BME280;45961;53.574;55.878;2023-04-25T00:39:14;100850.25;;;5.07;65.45
60089;BME280;45961;53.574;55.878;2023-04-25T00:40:16;100840.75;;;5.06;65.66
60089;BME280;45961;53.574;55.878;2023-04-25T00:41:17;100851.91;;;5.06;65.62
60089;BME280;45961;53.574;55.878;2023-04-25T00:42:18;100844.97;;;5.04;65.80
60089;BME280;45961;53.574;55.878;2023-04-25T00:43:19;100842.28;;;5.01;65.83
60089;BME280;45961;53.574;55.878;2023-04-25T00:44:20;100845.53;;;4.97;65.96
60089;BME280;45961;53.574;55.878;2023-04-25T00:45:21;100844.66;;;4.96;66.03
60089;BME280;45961;53.574;55.878;2023-04-25T00:46:21;100844.53;;;4.93;65.91
60089;BME280;45961;53.574;55.878;2023-04-25T00:47:22;100848.97;;;4.97;66.11
60089;BME280;45961;53.574;55.878;2023-04-25T00:48:24;100843.00;;;4.98;65.91
60089;BME280;45961;53.574;55.878;2023-04-25T00:49:25;100848.97;;;4.97;65.99
60089;BME280;45961;53.574;55.878;2023-04-25T00:50:25;100847.84;;;4.90;66.34
60089;BME280;45961;53.574;55.878;2023-04-25T00:51:26;100841.63;;;4.85;66.49
60089;BME280;45961;53.574;55.878;2023-04-25T00:52:28;100845.00;;;4.84;66.55
60089;BME280;45961;53.574;55.878;2023-04-25T00:53:29;100843.47;;;4.88;66.65
60089;BME280;45961;53.574;55.878;2023-04-25T00:54:30;100835.13;;;4.93;66.48
60089;BME280;45961;53.574;55.878;2023-04-25T00:55:32;100850.47;;;4.92;66.30
60089;BME280;45961;53.574;55.878;2023-04-25T00:56:35;100842.59;;;4.87;66.74
60089;BME280;45961;53.574;55.878;2023-04-25T00:57:35;100833.19;;;4.88;66.79
60089;BME280;45961;53.574;55.878;2023-04-25T00:58:37;100841.75;;;4.88;66.65
60089;BME280;45961;53.574;55.878;2023-04-25T00:59:38;100852.91;;;4.89;67.05
60089;BME280;45961;53.574;55.878;2023-04-25T01:00:39;100840.94;;;4.89;67.18
60089;BME280;45961;53.574;55.878;2023-04-25T01:01:41;100837.47;;;4.87;67.24
60089;BME280;45961;53.574;55.878;2023-04-25T01:02:42;100839.19;;;4.88;67.29
60089;BME280;45961;53.574;55.878;2023-04-25T01:03:44;100845.38;;;4.93;66.96
60089;BME280;45961;53.574;55.878;2023-04-25T01:04:46;100835.94;;;4.92;66.94
60089;BME280;45961;53.574;55.878;2023-04-25T01:05:47;100838.47;;;4.91;67.17
60089;BME280;45961;53.574;55.878;2023-04-25T01:06:51;100833.66;;;4.99;67.07
60089;BME280;45961;53.574;55.878;2023-04-25T01:07:52;100831.88;;;4.98;67.05
60089;BME280;45961;53.574;55.878;2023-04-25T01:08:53;100837.81;;;4.97;67.10
60089;BME280;45961;53.574;55.878;2023-04-25T01:09:55;100827.69;;;5.00;66.82
60089;BME280;45961;53.574;55.878;2023-04-25T01:10:55;100827.69;;;5.00;66.64
60089;BME280;45961;53.574;55.878;2023-04-25T01:11:56;100832.75;;;4.98;66.92
60089;BME280;45961;53.574;55.878;2023-04-25T01:12:58;100834.44;;;4.98;67.06
60089;BME280;45961;53.574;55.878;2023-04-25T01:13:59;100831.88;;;4.98;67.34
60089;BME280;45961;53.574;55.878;2023-04-25T01:15:01;100833.94;;;5.06;66.90
60089;BME280;45961;53.574;55.878;2023-04-25T01:16:03;100832.47;;;5.11;66.49
60089;BME280;45961;53.574;55.878;2023-04-25T01:17:04;100829.81;;;5.10;66.72
60089;BME280;45961;53.574;55.878;2023-04-25T01:18:05;100835.06;;;5.13;66.81
60089;BME280;45961;53.574;55.878;2023-04-25T01:19:09;100830.75;;;5.12;66.93
60089;BME280;45961;53.574;55.878;2023-04-25T01:20:13;100830.06;;;5.16;66.76
60089;BME280;45961;53.574;55.878;2023-04-25T01:21:14;100835.13;;;5.14;66.92
60089;BME280;45961;53.574;55.878;2023-04-25T01:22:16;100839.53;;;5.17;67.17
60089;BME280;45961;53.574;55.878;2023-04-25T01:23:18;100838.81;;;5.21;66.91
60089;BME280;45961;53.574;55.878;2023-04-25T01:24:19;100834.75;;;5.26;66.72
60089;BME280;45961;53.574;55.878;2023-04-25T01:25:20;100837.44;;;5.29;66.72
60089;BME280;45961;53.574;55.878;2023-04-25T01:26:21;100834.88;;;5.29;66.64
60089;BME280;45961;53.574;55.878;2023-04-25T01:27:22;100832.41;;;5.31;66.66
60089;BME280;45961;53.574;55.878;2023-04-25T01:28:23;100838.56;;;5.36;66.52
60089;BME280;45961;53.574;55.878;2023-04-25T01:29:24;100834.44;;;5.39;66.33
60089;BME280;45961;53.574;55.878;2023-04-25T01:30:26;100835.25;;;5.38;66.74
60089;BME280;45961;53.574;55.878;2023-04-25T01:31:27;100839.69;;;5.42;66.69
60089;BME280;45961;53.574;55.878;2023-04-25T01:32:28;100834.75;;;5.47;66.38
60089;BME280;45961;53.574;55.878;2023-04-25T01:33:29;100829.63;;;5.47;66.36
60089;BME280;45961;53.574;55.878;2023-04-25T01:34:30;100833.97;;;5.50;66.33
60089;BME280;45961;53.574;55.878;2023-04-25T01:35:32;100827.28;;;5.53;66.11
60089;BME280;45961;53.574;55.878;2023-04-25T01:36:33;100831.88;;;5.62;65.90
60089;BME280;45961;53.574;55.878;2023-04-25T01:37:44;100834.53;;;5.63;65.77
60089;BME280;45961;53.574;55.878;2023-04-25T01:38:46;100831.44;;;5.72;65.50
60089;BME280;45961;53.574;55.878;2023-04-25T01:39:47;100832.47;;;5.77;65.52
60089;BME280;45961;53.574;55.878;2023-04-25T01:40:50;100836.09;;;5.82;65.24
60089;BME280;45961;53.574;55.878;2023-04-25T01:41:53;100828.63;;;5.88;65.22
60089;BME280;45961;53.574;55.878;2023-04-25T01:42:54;100832.28;;;5.93;65.24
60089;BME280;45961;53.574;55.878;2023-04-25T01:43:55;100835.00;;;5.98;65.35
60089;BME280;45961;53.574;55.878;2023-04-25T01:44:57;100835.09;;;6.00;65.29
60089;BME280;45961;53.574;55.878;2023-04-25T01:45:57;100837.94;;;6.07;65.04
60089;BME280;45961;53.574;55.878;2023-04-25T01:46:59;100831.69;;;6.23;64.70
60089;BME280;45961;53.574;55.878;2023-04-25T01:48:00;100837.88;;;6.78;64.03
60089;BME280;45961;53.574;55.878;2023-04-25T01:49:01;100832.63;;;7.54;62.61
60089;BME280;45961;53.574;55.878;2023-04-25T01:50:03;100829.25;;;8.12;60.68
60089;BME280;45961;53.574;55.878;2023-04-25T01:51:05;100836.56;;;8.59;59.45
60089;BME280;45961;53.574;55.878;2023-04-25T01:52:07;100837.72;;;9.03;58.41
60089;BME280;45961;53.574;55.878;2023-04-25T01:53:08;100835.84;;;9.32;57.28
60089;BME280;45961;53.574;55.878;2023-04-25T01:54:13;100839.16;;;9.63;56.58
60089;BME280;45961;53.574;55.878;2023-04-25T01:55:14;100839.19;;;10.04;55.46
60089;BME280;45961;53.574;55.878;2023-04-25T01:56:31;100832.63;;;10.62;54.49
60089;BME280;45961;53.574;55.878;2023-04-25T01:57:33;100835.34;;;11.18;52.86
60089;BME280;45961;53.574;55.878;2023-04-25T01:58:35;100827.19;;;11.50;51.35
60089;BME280;45961;53.574;55.878;2023-04-25T01:59:59;100831.44;;;12.05;50.36
60089;BME280;45961;53.574;55.878;2023-04-25T02:01:13;100836.97;;;12.33;48.80
60089;BME280;45961;53.574;55.878;2023-04-25T02:02:20;100836.34;;;12.51;47.95
60089;BME280;45961;53.574;55.878;2023-04-25T02:04:03;100830.44;;;12.67;47.19
60089;BME280;45961;53.574;55.878;2023-04-25T02:04:59;100827.03;;;13.79;45.61
60089;BME280;45961;53.574;55.878;2023-04-25T02:07:20;100828.97;;;14.22;44.73
60089;BME280;45961;53.574;55.878;2023-04-25T02:08:25;100840.41;;;14.67;43.78
60089;BME280;45961;53.574;55.878;2023-04-25T02:09:29;100837.00;;;14.98;43.74
60089;BME280;45961;53.574;55.878;2023-04-25T02:10:31;100835.25;;;15.23;42.37
60089;BME280;45961;53.574;55.878;2023-04-25T02:11:50;100838.72;;;15.42;42.28
60089;BME280;45961;53.574;55.878;2023-04-25T02:13:11;100843.06;;;15.19;42.42
60089;BME280;45961;53.574;55.878;2023-04-25T02:14:38;100843.94;;;14.81;42.53
60089;BME280;45961;53.574;55.878;2023-04-25T02:15:45;100844.66;;;14.40;43.01
60089;BME280;45961;53.574;55.878;2023-04-25T02:16:51;100839.41;;;14.31;43.54
60089;BME280;45961;53.574;55.878;2023-04-25T02:17:52;100841.19;;;14.41;43.50
60089;BME280;45961;53.574;55.878;2023-04-25T02:18:53;100842.78;;;14.08;43.97
60089;BME280;45961;53.574;55.878;2023-04-25T02:19:55;100842.75;;;14.01;44.21
60089;BME280;45961;53.574;55.878;2023-04-25T02:20:56;100841.91;;;14.10;44.43
60089;BME280;45961;53.574;55.878;2023-04-25T02:21:57;100841.06;;;14.11;44.44
60089;BME280;45961;53.574;55.878;2023-04-25T02:23:01;100849.50;;;13.70;44.27
60089;BME280;45961;53.574;55.878;2023-04-25T02:24:02;100840.84;;;13.68;45.30
60089;BME280;45961;53.574;55.878;2023-04-25T02:25:04;100854.09;;;14.14;44.76
60089;BME280;45961;53.574;55.878;2023-04-25T02:26:05;100853.16;;;13.99;44.68
60089;BME280;45961;53.574;55.878;2023-04-25T02:27:06;100854.06;;;14.11;44.43
60089;BME280;45961;53.574;55.878;2023-04-25T02:28:09;100853.25;;;14.16;44.39
60089;BME280;45961;53.574;55.878;2023-04-25T02:29:11;100847.94;;;14.02;44.09
60089;BME280;45961;53.574;55.878;2023-04-25T02:30:13;100847.09;;;14.02;44.01
60089;BME280;45961;53.574;55.878;2023-04-25T02:31:17;100845.41;;;14.07;44.31
60089;BME280;45961;53.574;55.878;2023-04-25T02:32:18;100857.66;;;14.34;44.13
60089;BME280;45961;53.574;55.878;2023-04-25T02:33:21;100855.06;;;14.36;43.34
60089;BME280;45961;53.574;55.878;2023-04-25T02:34:22;100861.06;;;14.16;43.72
60089;BME280;45961;53.574;55.878;2023-04-25T02:35:23;100849.88;;;14.43;43.54
60089;BME280;45961;53.574;55.878;2023-04-25T02:36:24;100863.78;;;14.39;43.51
60089;BME280;45961;53.574;55.878;2023-04-25T02:37:27;100866.28;;;14.19;43.66
60089;BME280;45961;53.574;55.878;2023-04-25T02:38:27;100859.41;;;14.43;43.80
60089;BME280;45961;53.574;55.878;2023-04-25T02:39:30;100868.22;;;14.72;43.36
60089;BME280;45961;53.574;55.878;2023-04-25T02:40:33;100860.41;;;14.68;43.29
60089;BME280;45961;53.574;55.878;2023-04-25T02:41:33;100859.53;;;14.64;43.34
60089;BME280;45961;53.574;55.878;2023-04-25T02:42:35;100863.88;;;14.73;42.96
60089;BME280;45961;53.574;55.878;2023-04-25T02:43:35;100861.28;;;14.87;42.68
60089;BME280;45961;53.574;55.878;2023-04-25T02:44:36;100862.16;;;14.86;42.50
60089;BME280;45961;53.574;55.878;2023-04-25T02:45:39;100869.13;;;14.84;42.28
60089;BME280;45961;53.574;55.878;2023-04-25T02:46:40;100865.63;;;14.78;42.66
60089;BME280;45961;53.574;55.878;2023-04-25T02:47:41;100867.41;;;14.95;42.63
60089;BME280;45961;53.574;55.878;2023-04-25T02:48:42;100862.16;;;14.82;42.40
60089;BME280;45961;53.574;55.878;2023-04-25T02:49:43;100873.53;;;15.24;41.85
60089;BME280;45961;53.574;55.878;2023-04-25T02:50:44;100866.56;;;15.25;42.30
60089;BME280;45961;53.574;55.878;2023-04-25T02:51:46;100870.06;;;15.28;41.73
60089;BME280;45961;53.574;55.878;2023-04-25T02:52:47;100866.56;;;15.39;42.14
60089;BME280;45961;53.574;55.878;2023-04-25T02:53:55;100874.41;;;15.33;41.78
60089;BME280;45961;53.574;55.878;2023-04-25T02:54:56;100868.31;;;15.34;41.71
60089;BME280;45961;53.574;55.878;2023-04-25T02:55:57;100867.44;;;15.38;41.86
60089;BME280;45961;53.574;55.878;2023-04-25T02:56:59;100865.69;;;15.38;41.91
60089;BME280;45961;53.574;55.878;2023-04-25T02:58:05;100868.28;;;15.11;42.34
60089;BME280;45961;53.574;55.878;2023-04-25T02:59:16;100877.00;;;15.17;41.97
60089;BME280;45961;53.574;55.878;2023-04-25T03:00:17;100873.53;;;15.17;41.95
60089;BME280;45961;53.574;55.878;2023-04-25T03:01:18;100870.94;;;15.32;42.11
60089;BME280;45961;53.574;55.878;2023-04-25T03:02:18;100873.50;;;15.43;41.94
60089;BME280;45961;53.574;55.878;2023-04-25T03:03:19;100877.00;;;15.57;42.34
60089;BME280;45961;53.574;55.878;2023-04-25T03:04:22;100867.41;;;15.64;41.68
60089;BME280;45961;53.574;55.878;2023-04-25T03:05:24;100868.31;;;15.73;41.74
60089;BME280;45961;53.574;55.878;2023-04-25T03:06:25;100869.16;;;15.78;42.06
60089;BME280;45961;53.574;55.878;2023-04-25T03:07:26;100875.22;;;15.90;41.02
60089;BME280;45961;53.574;55.878;2023-04-25T03:08:27;100868.25;;;16.04;41.30
60089;BME280;45961;53.574;55.878;2023-04-25T03:09:33;100869.97;;;16.05;41.41
60089;BME280;45961;53.574;55.878;2023-04-25T03:10:35;100873.44;;;16.07;41.12
60089;BME280;45961;53.574;55.878;2023-04-25T03:11:39;100865.63;;;15.95;40.86
60089;BME280;45961;53.574;55.878;2023-04-25T03:12:40;100870.03;;;15.88;41.35
60089;BME280;45961;53.574;55.878;2023-04-25T03:13:41;100868.28;;;15.63;41.98
60089;BME280;45961;53.574;55.878;2023-04-25T03:14:44;100870.00;;;15.93;42.21
60089;BME280;45961;53.574;55.878;2023-04-25T03:15:45;100875.19;;;16.02;41.81
60089;BME280;45961;53.574;55.878;2023-04-25T03:16:45;100870.88;;;15.90;42.12
60089;BME280;45961;53.574;55.878;2023-04-25T03:17:46;100871.72;;;15.95;42.03
60089;BME280;45961;53.574;55.878;2023-04-25T03:18:47;100864.69;;;16.20;41.73
60089;BME280;45961;53.574;55.878;2023-04-25T03:19:49;100872.53;;;16.17;41.87
60089;BME280;45961;53.574;55.878;2023-04-25T03:20:51;100876.06;;;15.99;42.81
60089;BME280;45961;53.574;55.878;2023-04-25T03:21:52;100880.38;;;16.11;43.05
60089;BME280;45961;53.574;55.878;2023-04-25T03:22:54;100869.94;;;16.20;42.63
60089;BME280;45961;53.574;55.878;2023-04-25T03:23:56;100867.34;;;16.03;42.50
60089;BME280;45961;53.574;55.878;2023-04-25T03:24:57;100867.34;;;16.10;41.91
60089;BME280;45961;53.574;55.878;2023-04-25T03:25:58;100871.63;;;16.29;41.52
60089;BME280;45961;53.574;55.878;2023-04-25T03:26:59;100867.31;;;16.14;41.99
60089;BME280;45961;53.574;55.878;2023-04-25T03:28:02;100866.41;;;16.20;42.56
60089;BME280;45961;53.574;55.878;2023-04-25T03:29:02;100862.97;;;16.12;43.04
60089;BME280;45961;53.574;55.878;2023-04-25T03:30:04;100868.13;;;16.36;42.52
60089;BME280;45961;53.574;55.878;2023-04-25T03:31:06;100864.63;;;16.36;41.59
60089;BME280;45961;53.574;55.878;2023-04-25T03:32:06;100870.63;;;16.58;41.38
60089;BME280;45961;53.574;55.878;2023-04-25T03:33:07;100865.38;;;16.56;41.43
60089;BME280;45961;53.574;55.878;2023-04-25T03:34:08;100862.66;;;16.84;41.37
60089;BME280;45961;53.574;55.878;2023-04-25T03:35:10;100859.16;;;16.86;41.44
60089;BME280;45961;53.574;55.878;2023-04-25T03:36:12;100862.75;;;16.64;41.70
60089;BME280;45961;53.574;55.878;2023-04-25T03:37:13;100857.31;;;16.99;41.24
60089;BME280;45961;53.574;55.878;2023-04-25T03:38:16;100862.66;;;16.84;41.45
60089;BME280;45961;53.574;55.878;2023-04-25T03:39:17;100866.22;;;16.73;41.20
60089;BME280;45961;53.574;55.878;2023-04-25T03:40:22;100862.69;;;16.81;41.16
60089;BME280;45961;53.574;55.878;2023-04-25T03:41:41;100865.28;;;16.85;41.36
60089;BME280;45961;53.574;55.878;2023-04-25T03:42:47;100868.75;;;16.89;41.10
60089;BME280;45961;53.574;55.878;2023-04-25T03:43:48;100867.88;;;16.87;41.17
60089;BME280;45961;53.574;55.878;2023-04-25T03:44:51;100864.41;;;16.85;40.86
60089;BME280;45961;53.574;55.878;2023-04-25T03:45:52;100869.50;;;17.03;40.69
60089;BME280;45961;53.574;55.878;2023-04-25T03:46:55;100869.47;;;17.08;40.64
60089;BME280;45961;53.574;55.878;2023-04-25T03:47:57;100870.41;;;16.96;40.73
60089;BME280;45961;53.574;55.878;2023-04-25T03:48:57;100872.13;;;17.00;40.83
60089;BME280;45961;53.574;55.878;2023-04-25T03:50:11;100872.13;;;17.00;41.24
60089;BME280;45961;53.574;55.878;2023-04-25T03:51:12;100866.66;;;17.32;40.50
60089;BME280;45961;53.574;55.878;2023-04-25T03:52:16;100865.66;;;17.50;39.83
60089;BME280;45961;53.574;55.878;2023-04-25T03:53:18;100869.03;;;17.61;39.47
60089;BME280;45961;53.574;55.878;2023-04-25T03:54:48;100872.50;;;17.60;39.31
60089;BME280;45961;53.574;55.878;2023-04-25T03:55:52;100874.28;;;17.58;39.56
60089;BME280;45961;53.574;55.878;2023-04-25T03:56:53;100860.97;;;17.84;39.44
60089;BME280;45961;53.574;55.878;2023-04-25T03:57:57;100870.69;;;17.68;39.34
60089;BME280;45961;53.574;55.878;2023-04-25T03:58:58;100863.81;;;17.61;39.51
60089;BME280;45961;53.574;55.878;2023-04-25T04:00:01;100854.16;;;17.66;39.51
60089;BME280;45961;53.574;55.878;2023-04-25T04:01:14;100859.34;;;17.69;39.45
60089;BME280;45961;53.574;55.878;2023-04-25T04:02:14;100868.84;;;17.83;39.68
60089;BME280;45961;53.574;55.878;2023-04-25T04:03:15;100860.19;;;17.78;39.32
60089;BME280;45961;53.574;55.878;2023-04-25T04:04:17;100856.63;;;17.83;39.78
60089;BME280;45961;53.574;55.878;2023-04-25T04:05:18;100858.38;;;17.83;39.51
60089;BME280;45961;53.574;55.878;2023-04-25T04:06:25;100863.59;;;17.86;38.42
60089;BME280;45961;53.574;55.878;2023-04-25T04:07:32;100859.00;;;18.06;39.26
60089;BME280;45961;53.574;55.878;2023-04-25T04:08:37;100855.47;;;18.07;38.53
60089;BME280;45961;53.574;55.878;2023-04-25T04:09:38;100854.66;;;18.00;38.13
60089;BME280;45961;53.574;55.878;2023-04-25T04:10:43;100852.91;;;18.03;39.22
60089;BME280;45961;53.574;55.878;2023-04-25T04:11:44;100864.97;;;18.17;38.33
60089;BME280;45961;53.574;55.878;2023-04-25T04:12:45;100855.53;;;18.03;38.72
60089;BME280;45961;53.574;55.878;2023-04-25T04:13:46;100857.06;;;18.20;38.87
60089;BME280;45961;53.574;55.878;2023-04-25T04:14:47;100859.75;;;18.17;38.43
60089;BME280;45961;53.574;55.878;2023-04-25T04:15:50;100852.56;;;18.32;38.54
60089;BME280;45961;53.574;55.878;2023-04-25T04:16:52;100847.16;;;18.45;38.39
60089;BME280;45961;53.574;55.878;2023-04-25T04:17:53;100848.28;;;18.26;38.21
60089;BME280;45961;53.574;55.878;2023-04-25T04:18:54;100847.47;;;18.19;38.07
60089;BME280;45961;53.574;55.878;2023-04-25T04:19:55;100844.19;;;18.00;37.87
60089;BME280;45961;53.574;55.878;2023-04-25T04:20:56;100843.56;;;17.82;38.44
60089;BME280;45961;53.574;55.878;2023-04-25T04:21:59;100847.66;;;18.04;38.51
60089;BME280;45961;53.574;55.878;2023-04-25T04:23:00;100838.19;;;17.92;38.85
60089;BME280;45961;53.574;55.878;2023-04-25T04:24:01;100846.56;;;18.22;39.23
60089;BME280;45961;53.574;55.878;2023-04-25T04:25:06;100837.09;;;18.13;38.16
60089;BME280;45961;53.574;55.878;2023-04-25T04:26:26;100839.81;;;18.03;38.46
60089;BME280;45961;53.574;55.878;2023-04-25T04:27:34;100836.97;;;18.22;38.76
60089;BME280;45961;53.574;55.878;2023-04-25T04:28:58;100844.09;;;18.10;38.56
60089;BME280;45961;53.574;55.878;2023-04-25T04:30:23;100833.53;;;18.16;39.28
60089;BME280;45961;53.574;55.878;2023-04-25T04:31:37;100828.97;;;18.32;39.31
60089;BME280;45961;53.574;55.878;2023-04-25T04:32:38;100827.13;;;18.41;38.52
60089;BME280;45961;53.574;55.878;2023-04-25T04:33:39;100833.09;;;18.51;38.22
60089;BME280;45961;53.574;55.878;2023-04-25T04:34:41;100831.19;;;18.62;38.51
60089;BME280;45961;53.574;55.878;2023-04-25T04:35:42;100831.59;;;18.32;38.19
60089;BME280;45961;53.574;55.878;2023-04-25T04:36:45;100833.44;;;18.23;37.77
60089;BME280;45961;53.574;55.878;2023-04-25T04:37:49;100832.94;;;17.92;38.26
60089;BME280;45961;53.574;55.878;2023-04-25T04:38:52;100830.88;;;18.19;38.35
60089;BME280;45961;53.574;55.878;2023-04-25T04:40:06;100827.28;;;18.28;38.42
60089;BME280;45961;53.574;55.878;2023-04-25T04:41:16;100826.78;;;18.66;38.50
60089;BME280;45961;53.574;55.878;2023-04-25T04:42:36;100829.22;;;18.80;38.41
60089;BME280;45961;53.574;55.878;2023-04-25T04:44:06;100828.22;;;18.85;37.35
60089;BME280;45961;53.574;55.878;2023-04-25T04:45:29;100820.28;;;18.91;37.54
60089;BME280;45961;53.574;55.878;2023-04-25T04:46:59;100816.84;;;18.88;37.69
60089;BME280;45961;53.574;55.878;2023-04-25T04:48:06;100817.66;;;18.91;37.54
60089;BME280;45961;53.574;55.878;2023-04-25T04:49:36;100823.66;;;18.38;36.98
60089;BME280;45961;53.574;55.878;2023-04-25T04:51:03;100828.00;;;18.39;37.61
60089;BME280;45961;53.574;55.878;2023-04-25T04:52:23;100816.47;;;18.54;37.44
60089;BME280;45961;53.574;55.878;2023-04-25T04:53:37;100819.66;;;18.76;37.40
60089;BME280;45961;53.574;55.878;2023-04-25T04:54:54;100818.06;;;18.62;36.87
60089;BME280;45961;53.574;55.878;2023-04-25T04:56:24;100820.59;;;18.68;37.14
60089;BME280;45961;53.574;55.878;2023-04-25T04:57:32;100820.56;;;18.73;36.85
60089;BME280;45961;53.574;55.878;2023-04-25T04:58:51;100811.63;;;18.86;37.38
60089;BME280;45961;53.574;55.878;2023-04-25T05:00:30;100805.94;;;19.12;37.24
60089;BME280;45961;53.574;55.878;2023-04-25T05:01:52;100812.84;;;19.19;36.88
60089;BME280;45961;53.574;55.878;2023-04-25T05:03:12;100807.66;;;19.13;37.21
60089;BME280;45961;53.574;55.878;2023-04-25T05:04:46;100805.78;;;19.21;35.92
60089;BME280;45961;53.574;55.878;2023-04-25T05:06:10;100811.81;;;19.28;36.37
60089;BME280;45961;53.574;55.878;2023-04-25T05:07:30;100806.25;;;19.46;36.61
60089;BME280;45961;53.574;55.878;2023-04-25T05:08:44;100799.78;;;19.66;36.59
60089;BME280;45961;53.574;55.878;2023-04-25T05:09:59;100801.50;;;19.67;36.21
60089;BME280;45961;53.574;55.878;2023-04-25T05:11:17;100798.78;;;19.71;35.68
60089;BME280;45961;53.574;55.878;2023-04-25T05:12:38;100800.50;;;19.74;35.20
60089;BME280;45961;53.574;55.878;2023-04-25T05:13:53;100799.75;;;19.67;35.34
60089;BME280;45961;53.574;55.878;2023-04-25T05:16:57;100793.25;;;19.87;35.26
60089;BME280;45961;53.574;55.878;2023-04-25T05:18:33;100785.13;;;19.99;35.40
60089;BME280;45961;53.574;55.878;2023-04-25T05:19:41;100788.38;;;20.10;35.16
60089;BME280;45961;53.574;55.878;2023-04-25T05:21:18;100793.56;;;20.13;34.59
60089;BME280;45961;53.574;55.878;2023-04-25T05:22:43;100791.16;;;20.03;34.09
60089;BME280;45961;53.574;55.878;2023-04-25T05:23:52;100790.75;;;20.21;34.29
60089;BME280;45961;53.574;55.878;2023-04-25T05:25:11;100788.44;;;20.46;33.71
60089;BME280;45961;53.574;55.878;2023-04-25T05:26:31;100788.84;;;20.29;33.38
60089;BME280;45961;53.574;55.878;2023-04-25T05:27:41;100788.59;;;20.40;34.11
60089;BME280;45961;53.574;55.878;2023-04-25T05:28:53;100786.63;;;20.51;33.98
60089;BME280;45961;53.574;55.878;2023-04-25T05:30:11;100780.53;;;20.49;33.57
60089;BME280;45961;53.574;55.878;2023-04-25T05:31:32;100792.41;;;20.67;33.65
60089;BME280;45961;53.574;55.878;2023-04-25T05:32:37;100784.53;;;20.65;33.44
60089;BME280;45961;53.574;55.878;2023-04-25T05:33:37;100782.63;;;20.72;34.46
60089;BME280;45961;53.574;55.878;2023-04-25T05:34:38;100779.78;;;20.81;33.83
60089;BME280;45961;53.574;55.878;2023-04-25T05:35:46;100776.72;;;20.98;33.79
60089;BME280;45961;53.574;55.878;2023-04-25T05:36:48;100775.84;;;20.99;32.88
60089;BME280;45961;53.574;55.878;2023-04-25T05:37:49;100773.88;;;21.07;32.88
60089;BME280;45961;53.574;55.878;2023-04-25T05:38:51;100772.78;;;21.16;32.62
60089;BME280;45961;53.574;55.878;2023-04-25T05:40:27;100778.84;;;21.18;32.79